Time;durP1;ratioP1;P1;durP2;ratioP2;P2;SDS_P1;SDS_P2;PMS_P1;PMS_P2;Temp;Humidity;BMP_temperature;BMP_pressure;BME280_temperature;BME280_humidity;BME280_pressure;Samples;Min_cycle;Max_cycle;Signal;HPM_P1;HPM_P2
2023/04/20 04:32:08;;;;;;;;;6.50;5.50;;;;;12.51;37.91;101225.19;5114209;27;45437;-75
2023/04/20 04:34:34;;;;;;;;;7.50;5.25;;;;;12.48;37.60;101234.28;5117473;27;45885;-74
2023/04/20 04:37:00;;;;;;;;;7.50;6.00;;;;;12.43;37.28;101228.22;5117403;27;45424;-77
2023/04/20 04:39:27;;;;;;;;;9.00;5.00;;;;;12.43;37.61;101233.59;5117582;27;45309;-75
2023/04/20 04:41:52;;;;;;;;;4.75;4.75;;;;;12.41;37.65;101231.94;5116913;27;45305;-75
2023/04/20 04:44:18;;;;;;;;;6.00;6.00;;;;;12.39;37.20;101225.75;5117227;27;45416;-76
2023/04/20 04:46:44;;;;;;;;;6.00;5.75;;;;;12.31;37.34;101223.44;5116604;27;45357;-77
2023/04/20 04:49:10;;;;;;;;;10.00;5.25;;;;;12.30;37.62;101229.75;5117357;27;45178;-76
2023/04/20 04:51:36;;;;;;;;;6.00;6.00;;;;;12.32;37.66;101238.63;5116702;27;45595;-76
2023/04/20 04:54:02;;;;;;;;;6.75;6.75;;;;;12.33;37.71;101228.75;5117078;27;45987;-75
2023/04/20 04:56:27;;;;;;;;;4.00;4.00;;;;;12.11;37.80;101200.13;5116668;27;45519;-73
2023/04/20 04:58:53;;;;;;;;;4.00;4.00;;;;;12.29;37.63;101237.88;5117001;27;45613;-76
2023/04/20 05:01:18;;;;;;;;;5.25;5.25;;;;;12.30;37.70;101245.88;5116590;27;45535;-75
2023/04/20 05:03:43;;;;;;;;;6.00;5.00;;;;;12.24;37.92;101227.34;5116737;27;45982;-76
2023/04/20 05:06:09;;;;;;;;;5.00;5.00;;;;;12.22;37.73;101242.66;5116860;27;45385;-78
2023/04/20 05:08:34;;;;;;;;;6.00;6.00;;;;;12.29;37.76;101249.50;5117076;27;45543;-76
2023/04/20 05:11:00;;;;;;;;;8.50;6.25;;;;;12.29;37.48;101249.50;5116398;27;45374;-77
2023/04/20 05:13:25;;;;;;;;;3.00;3.00;;;;;12.25;37.46;101244.34;5116767;27;46261;-76
2023/04/20 05:15:50;;;;;;;;;6.00;6.00;;;;;12.29;37.40;101254.88;5084544;27;45468;-76
2023/04/20 05:18:16;;;;;;;;;7.25;7.25;;;;;12.26;37.21;101257.69;5116229;27;45596;-76
2023/04/20 05:20:41;;;;;;;;;6.00;6.00;;;;;12.22;37.43;101256.09;5116516;27;45300;-76
2023/04/20 05:23:07;;;;;;;;;7.75;7.75;;;;;12.21;37.55;101245.41;5116946;27;45925;-76
2023/04/20 05:25:32;;;;;;;;;5.75;5.75;;;;;12.27;36.98;101259.44;5116334;27;45306;-76
2023/04/20 05:27:58;;;;;;;;;8.75;6.00;;;;;12.26;37.45;101263.06;5116806;27;45361;-70
2023/04/20 05:30:23;;;;;;;;;5.00;5.00;;;;;12.23;36.95;101254.28;5116274;27;45384;-74
2023/04/20 05:32:49;;;;;;;;;9.50;6.50;;;;;12.13;37.29;101251.13;5116401;27;45572;-77
2023/04/20 05:35:14;;;;;;;;;8.50;6.00;;;;;12.24;37.03;101266.78;5116458;27;45311;-73
2023/04/20 05:37:40;;;;;;;;;5.00;5.00;;;;;12.20;37.16;101263.34;5097862;27;45636;-75
2023/04/20 05:40:06;;;;;;;;;6.00;6.00;;;;;12.24;37.50;101280.22;5116239;27;45513;-75
2023/04/20 05:42:32;;;;;;;;;7.75;7.75;;;;;12.09;37.62;101260.25;5094333;27;47876;-77
2023/04/20 05:44:57;;;;;;;;;4.75;4.75;;;;;12.11;37.58;101250.31;5092238;27;45625;-80
2023/04/20 05:47:22;;;;;;;;;8.75;8.00;;;;;12.11;37.63;101256.56;5116463;27;45384;-79
2023/04/20 05:49:50;;;;;;;;;7.00;7.00;;;;;12.18;37.49;101269.72;5116515;27;45291;-80
2023/04/20 05:52:15;;;;;;;;;8.00;8.00;;;;;12.14;37.57;101263.63;5116274;27;46214;-77
2023/04/20 05:54:41;;;;;;;;;7.00;7.00;;;;;12.14;37.85;101258.25;5095684;27;45414;-74
2023/04/20 05:57:06;;;;;;;;;3.75;3.75;;;;;11.97;37.36;101231.25;5116107;27;45539;-80
2023/04/20 05:59:31;;;;;;;;;10.75;7.75;;;;;12.04;37.54;101243.47;5097452;27;47134;-72
2023/04/20 06:01:57;;;;;;;;;7.00;7.00;;;;;12.18;37.63;101264.34;5115948;27;45420;-76
2023/04/20 06:04:22;;;;;;;;;3.25;3.25;;;;;12.20;37.57;101279.47;5115944;27;45336;-77
2023/04/20 06:06:47;;;;;;;;;7.75;7.75;;;;;12.19;38.14;101266.97;5116424;27;45631;-76
2023/04/20 06:09:13;;;;;;;;;9.75;6.00;;;;;12.24;38.03;101272.16;5115449;27;45468;-78
2023/04/20 06:11:39;;;;;;;;;7.75;7.75;;;;;12.27;37.67;101266.63;5115762;27;46241;-76
2023/04/20 06:14:04;;;;;;;;;7.75;7.75;;;;;12.29;37.98;101268.31;5097509;27;45568;-76
2023/04/20 06:16:29;;;;;;;;;8.25;8.25;;;;;12.31;38.09;101263.75;5116150;27;45348;-77
2023/04/20 06:18:55;;;;;;;;;10.50;9.00;;;;;12.21;37.72;101234.66;5115841;27;45362;-76
2023/04/20 06:21:23;;;;;;;;;6.25;4.50;;;;;12.37;38.14;101260.78;5115870;27;45952;-77
2023/04/20 06:23:48;;;;;;;;;13.00;10.50;;;;;12.44;38.01;101258.69;5115506;27;45382;-79
2023/04/20 06:26:13;;;;;;;;;6.25;6.25;;;;;12.49;37.79;101268.31;5097009;27;45420;-76
2023/04/20 06:28:39;;;;;;;;;12.00;11.00;;;;;12.51;37.62;101263.72;5115742;27;45241;-78
2023/04/20 06:31:05;;;;;;;;;10.25;7.75;;;;;12.48;37.46;101249.56;5118287;27;45445;-77
2023/04/20 06:33:30;;;;;;;;;8.75;8.75;;;;;12.55;37.31;101263.56;5097440;27;46089;-77
2023/04/20 06:35:56;;;;;;;;;7.25;7.25;;;;;12.53;36.99;101260.94;5105479;27;45457;-76
2023/04/20 06:38:22;;;;;;;;;11.25;9.50;;;;;12.61;37.27;101274.91;5119305;27;45895;-78
2023/04/20 06:40:48;;;;;;;;;7.25;7.25;;;;;12.52;37.49;101251.13;5118884;27;46118;-77
2023/04/20 06:43:13;;;;;;;;;7.00;7.00;;;;;12.57;37.33;101257.19;5118870;27;45389;-75
2023/04/20 06:45:39;;;;;;;;;11.00;8.25;;;;;12.61;37.04;101276.75;5119112;27;45305;-77
2023/04/20 06:48:05;;;;;;;;;10.75;9.75;;;;;12.58;37.08;101276.91;5118802;27;46048;-76
2023/04/20 06:50:30;;;;;;;;;8.25;7.50;;;;;12.49;37.13;101267.44;5118878;27;45315;-76
2023/04/20 06:52:55;;;;;;;;;7.25;7.25;;;;;12.48;37.61;101263.00;5118767;27;45490;-77
2023/04/20 06:55:21;;;;;;;;;12.75;10.00;;;;;12.45;36.96;101263.13;5118655;27;45266;-76
2023/04/20 06:57:46;;;;;;;;;8.25;8.25;;;;;12.36;37.54;101261.72;5118921;27;45528;-76
2023/04/20 07:00:12;;;;;;;;;6.00;6.00;;;;;12.36;37.80;101258.16;5118374;27;45918;-77
2023/04/20 07:02:48;;;;;;;;;10.75;10.75;;;;;12.44;37.68;101266.75;5118727;27;45310;-77
2023/04/20 07:05:14;;;;;;;;;10.00;8.75;;;;;12.47;37.71;101266.63;5119209;27;45377;-77
2023/04/20 07:07:41;;;;;;;;;10.00;8.00;;;;;12.35;38.46;101243.84;5118567;27;45431;-76
2023/04/20 07:10:08;;;;;;;;;10.50;9.00;;;;;12.52;38.12;101269.97;5118485;27;46209;-78
2023/04/20 07:12:38;;;;;;;;;12.50;11.00;;;;;12.48;37.50;101268.38;5118422;27;45380;-77
2023/04/20 07:15:05;;;;;;;;;13.25;10.25;;;;;12.45;37.70;101265.81;5118712;27;45387;-74
2023/04/20 07:17:31;;;;;;;;;7.25;7.25;;;;;12.52;37.78;101281.59;5118175;27;45315;-75
2023/04/20 07:19:57;;;;;;;;;9.25;8.25;;;;;12.44;37.72;101272.13;5118480;27;46155;-77
2023/04/20 07:22:24;;;;;;;;;9.50;9.50;;;;;12.53;38.12;101277.09;5118199;27;45393;-77
2023/04/20 07:24:50;;;;;;;;;10.00;10.00;;;;;12.50;38.03;101267.34;5118489;27;45331;-78
2023/04/20 07:27:15;;;;;;;;;10.00;10.00;;;;;12.55;37.91;101269.84;5084975;27;45248;-77
2023/04/20 07:29:40;;;;;;;;;11.25;9.50;;;;;12.55;37.71;101268.97;5097640;27;46123;-78
2023/04/20 07:32:06;;;;;;;;;11.25;11.25;;;;;12.57;37.81;101259.00;5097106;27;47093;-77
2023/04/20 07:34:31;;;;;;;;;7.50;7.50;;;;;12.65;37.97;101270.28;5097954;27;45493;-75
2023/04/20 07:36:56;;;;;;;;;9.00;9.00;;;;;12.67;38.14;101271.97;5091884;27;46627;-78
2023/04/20 07:39:24;;;;;;;;;10.00;10.00;;;;;12.67;37.78;101257.66;5118994;27;45152;-78
2023/04/20 07:41:49;;;;;;;;;11.75;9.25;;;;;12.62;38.04;101244.41;5117970;27;45393;-77
2023/04/20 07:44:14;;;;;;;;;9.75;7.75;;;;;12.78;38.19;101266.94;5118519;27;45239;-77
2023/04/20 07:46:40;;;;;;;;;12.50;11.75;;;;;12.82;37.47;101267.69;5117718;27;45464;-76
2023/04/20 07:49:05;;;;;;;;;14.25;13.25;;;;;12.65;37.73;101235.31;5117830;27;45885;-77
2023/04/20 07:51:33;;;;;;;;;10.25;9.50;;;;;12.75;37.75;101248.28;5117673;27;45302;-77
2023/04/20 07:53:58;;;;;;;;;11.50;11.50;;;;;12.80;37.75;101251.63;5099748;27;45318;-78
2023/04/20 07:56:24;;;;;;;;;11.00;10.75;;;;;12.73;37.59;101234.03;5117631;27;45489;-76
2023/04/20 07:58:49;;;;;;;;;13.50;12.00;;;;;12.82;38.04;101246.16;5117606;27;46461;-78
2023/04/20 08:01:14;;;;;;;;;11.00;11.00;;;;;12.89;37.85;101247.63;5117712;27;45285;-76
2023/04/20 08:03:40;;;;;;;;;12.00;11.00;;;;;12.99;37.96;101246.25;5118063;27;45307;-77
2023/04/20 08:06:05;;;;;;;;;11.00;11.00;;;;;13.05;37.50;101258.53;5117803;27;45171;-77
2023/04/20 08:08:31;;;;;;;;;10.00;10.00;;;;;13.05;37.98;101245.06;5117867;27;45530;-76
2023/04/20 08:10:57;;;;;;;;;14.50;11.50;;;;;13.07;37.61;101254.81;5117267;27;45275;-77
2023/04/20 08:13:23;;;;;;;;;9.75;7.50;;;;;13.11;37.19;101255.53;5117876;27;45517;-77
2023/04/20 08:15:48;;;;;;;;;12.25;11.00;;;;;13.13;37.08;101248.25;5117406;27;45429;-78
2023/04/20 08:18:13;;;;;;;;;13.75;12.00;;;;;13.15;37.17;101244.59;5117531;27;45449;-77
2023/04/20 08:20:38;;;;;;;;;13.75;12.25;;;;;13.17;37.19;101244.50;5117010;27;55415;-78
2023/04/20 08:23:04;;;;;;;;;13.50;13.00;;;;;13.16;37.12;101238.25;5117573;27;45272;-76
2023/04/20 08:25:31;;;;;;;;;13.50;11.75;;;;;13.20;37.20;101225.50;5117151;27;45732;-77
2023/04/20 08:27:56;;;;;;;;;9.25;9.25;;;;;13.27;37.18;101228.78;5117814;27;46085;-77
2023/04/20 08:30:23;;;;;;;;;12.25;10.50;;;;;13.25;36.35;101210.88;5117257;27;45310;-77
2023/04/20 08:32:48;;;;;;;;;12.75;12.75;;;;;13.25;37.00;101201.94;5117417;27;45439;-78
2023/04/20 08:35:13;;;;;;;;;15.75;12.75;;;;;13.44;36.95;101226.97;5117237;27;45518;-78
2023/04/20 08:37:40;;;;;;;;;13.50;12.25;;;;;13.34;37.11;101198.78;5117449;27;46081;-78
2023/04/20 08:40:06;;;;;;;;;12.00;12.00;;;;;13.52;36.76;101230.19;5116789;27;45369;-78
2023/04/20 08:42:32;;;;;;;;;13.75;12.25;;;;;13.50;36.63;101217.72;5117116;27;45546;-76
2023/04/20 08:44:58;;;;;;;;;14.25;13.00;;;;;13.59;36.68;101228.03;5117228;27;45396;-78
2023/04/20 08:47:24;;;;;;;;;12.00;12.00;;;;;13.56;36.56;101214.72;5117132;27;45420;-77
2023/04/20 08:49:53;;;;;;;;;15.50;13.75;;;;;13.64;36.08;101226.84;5098268;27;45282;-77
2023/04/20 08:52:19;;;;;;;;;18.75;13.75;;;;;13.63;36.71;101221.53;5116132;27;45369;-77
2023/04/20 08:54:44;;;;;;;;;13.50;12.25;;;;;13.70;35.88;101222.09;5116887;27;45382;-78
2023/04/20 08:57:10;;;;;;;;;9.75;9.75;;;;;13.62;36.00;101204.50;5117060;27;45652;-77
2023/04/20 08:59:36;;;;;;;;;18.00;14.00;;;;;13.55;35.05;101186.03;5116809;27;45378;-78
2023/04/20 09:02:12;;;;;;;;;11.50;11.50;;;;;13.81;35.36;101223.28;5117409;27;45519;-77
2023/04/20 09:04:39;;;;;;;;;18.25;14.75;;;;;13.84;34.92;101214.19;5116749;27;45425;-77
2023/04/20 09:07:04;;;;;;;;;12.00;12.00;;;;;13.79;35.01;101200.06;5116942;27;45252;-77
2023/04/20 09:09:30;;;;;;;;;14.75;13.00;;;;;13.83;34.24;101204.34;5116786;27;45397;-77
2023/04/20 09:12:06;;;;;;;;;11.75;11.25;;;;;13.86;34.06;101199.69;5116621;27;45309;-77
2023/04/20 09:14:46;;;;;;;;;16.00;13.50;;;;;13.92;34.28;101199.34;5116746;27;45332;-78
2023/04/20 09:17:13;;;;;;;;;13.75;13.75;;;;;13.90;34.52;101181.50;5116722;27;45967;-77
2023/04/20 09:19:39;;;;;;;;;10.75;10.75;;;;;14.00;34.62;101189.03;5116601;27;45325;-77
2023/04/20 09:22:05;;;;;;;;;8.00;8.00;;;;;14.03;34.42;101185.31;5116904;27;45267;-79
2023/04/20 09:24:35;;;;;;;;;13.00;13.00;;;;;13.98;34.42;101165.81;5116367;27;45594;-78
2023/04/20 09:27:14;;;;;;;;;16.50;14.50;;;;;14.05;34.65;101171.72;5097773;27;48573;-77
2023/04/20 09:29:40;;;;;;;;;16.50;15.25;;;;;14.16;35.43;101185.53;5097953;27;45573;-77
2023/04/20 09:32:05;;;;;;;;;16.00;13.00;;;;;14.23;35.44;101186.94;5116524;27;45565;-78
2023/04/20 09:34:42;;;;;;;;;15.00;11.25;;;;;14.24;35.51;101173.38;5097605;27;45365;-77
2023/04/20 09:37:09;;;;;;;;;10.25;10.25;;;;;14.18;34.45;101148.56;5116554;27;46075;-78
2023/04/20 09:39:36;;;;;;;;;13.75;12.00;;;;;14.22;34.51;101151.00;5116469;27;45334;-78
2023/04/20 09:42:04;;;;;;;;;15.75;14.00;;;;;14.38;33.94;101172.59;5116269;27;45200;-78
2023/04/20 09:44:31;;;;;;;;;14.75;14.75;;;;;14.34;33.98;101153.03;5116147;27;45319;-76
2023/04/20 09:46:57;;;;;;;;;10.75;10.75;;;;;14.44;33.42;101158.84;5116006;27;46184;-77
2023/04/20 09:49:23;;;;;;;;;12.75;12.50;;;;;14.38;33.19;101142.94;5116046;27;45357;-78
2023/04/20 09:51:50;;;;;;;;;8.75;7.75;;;;;14.43;33.48;101149.00;5116105;27;45342;-77
2023/04/20 09:54:15;;;;;;;;;10.25;10.00;;;;;14.34;34.00;101120.66;5115995;27;51724;-77
2023/04/20 09:56:40;;;;;;;;;6.75;6.75;;;;;14.49;34.09;101120.78;5115931;27;45734;-76
2023/04/20 09:59:06;;;;;;;;;12.50;10.50;;;;;14.39;34.06;101102.41;5116060;27;45258;-78
2023/04/20 10:01:34;;;;;;;;;8.75;8.75;;;;;14.61;33.58;101131.78;5116037;27;45577;-77
2023/04/20 10:04:01;;;;;;;;;10.25;10.25;;;;;14.62;33.96;101138.94;5101173;27;47273;-78
2023/04/20 10:06:32;;;;;;;;;12.00;9.00;;;;;14.58;34.21;101136.47;5113381;27;45471;-77
2023/04/20 10:09:01;;;;;;;;;11.50;10.50;;;;;14.59;34.79;101135.50;5115967;27;45243;-79
2023/04/20 10:11:30;;;;;;;;;9.50;9.00;;;;;14.59;34.94;101132.81;5110223;27;45469;-77
2023/04/20 10:14:12;;;;;;;;;14.75;12.25;;;;;14.58;34.81;101133.78;5108105;27;45340;-77
2023/04/20 10:16:38;;;;;;;;;12.50;12.50;;;;;14.50;35.00;101098.25;5115865;27;46541;-77
2023/04/20 10:19:03;;;;;;;;;10.25;10.25;;;;;14.69;35.14;101120.56;5115862;27;45384;-77
2023/04/20 10:21:31;;;;;;;;;10.00;9.50;;;;;14.87;35.04;101124.91;5094054;27;45351;-77
2023/04/20 10:23:59;;;;;;;;;10.25;10.25;;;;;14.96;34.97;101126.19;5109951;27;45218;-78
2023/04/20 10:26:38;;;;;;;;;10.50;10.50;;;;;15.07;34.93;101130.00;5115722;27;46130;-79
2023/04/20 10:29:03;;;;;;;;;11.50;11.50;;;;;15.11;34.92;101118.06;5115799;27;45321;-75
2023/04/20 10:31:39;;;;;;;;;11.25;9.50;;;;;15.10;34.41;101112.75;5116080;27;45439;-79
2023/04/20 10:34:06;;;;;;;;;14.25;14.25;;;;;15.15;34.65;101118.75;5115495;27;45451;-77
2023/04/20 10:36:35;;;;;;;;;9.25;9.25;;;;;15.13;34.80;101120.69;5115621;27;45977;-78
2023/04/20 10:39:15;;;;;;;;;8.75;8.75;;;;;15.04;34.81;101100.50;5115472;27;45489;-76
2023/04/20 10:41:54;;;;;;;;;8.25;8.00;;;;;14.99;34.54;101091.78;5115288;27;45744;-76
2023/04/20 10:44:20;;;;;;;;;11.50;10.00;;;;;15.00;34.97;101104.31;5115267;27;45506;-78
2023/04/20 10:46:50;;;;;;;;;9.50;9.00;;;;;14.91;35.37;101091.34;5115004;27;45993;-78
2023/04/20 10:49:16;;;;;;;;;10.75;10.75;;;;;14.98;35.26;101095.44;5115188;27;45365;-77
2023/04/20 10:51:49;;;;;;;;;8.75;8.75;;;;;14.85;35.66;101097.13;5096415;27;45364;-78
2023/04/20 10:54:15;;;;;;;;;11.25;10.75;;;;;14.79;35.40;101089.38;5096626;27;45889;-77
2023/04/20 10:56:45;;;;;;;;;11.50;11.25;;;;;14.85;35.30;101105.22;5096508;27;48363;-77
2023/04/20 10:59:15;;;;;;;;;11.75;11.75;;;;;14.89;35.11;101106.75;5115154;27;45378;-78
2023/04/20 11:01:42;;;;;;;;;12.75;9.50;;;;;14.90;35.42;101102.22;5115300;27;45508;-78
2023/04/20 11:04:11;;;;;;;;;13.00;13.00;;;;;14.83;35.14;101084.66;5115207;27;45480;-77
2023/04/20 11:06:43;;;;;;;;;13.75;13.00;;;;;14.87;35.77;101088.94;5115017;27;46173;-76
2023/04/20 11:09:27;;;;;;;;;13.50;12.25;;;;;14.95;35.93;101095.63;5115268;27;45433;-76
2023/04/20 11:12:00;;;;;;;;;14.25;13.25;;;;;14.91;36.26;101090.47;5096629;27;45278;-77
2023/04/20 11:14:28;;;;;;;;;11.50;11.50;;;;;14.90;35.93;101094.13;5115004;27;45451;-75
2023/04/20 11:16:55;;;;;;;;;16.25;13.75;;;;;14.77;36.09;101094.00;5099133;27;48492;-75
2023/04/20 11:19:27;;;;;;;;;13.50;13.50;;;;;14.63;36.46;101075.03;5118532;27;45239;-77
2023/04/20 11:21:52;;;;;;;;;14.50;14.50;;;;;14.58;36.48;101083.38;5118577;27;45362;-77
2023/04/20 11:24:25;;;;;;;;;13.75;12.25;;;;;14.53;36.58;101084.59;5118300;27;45423;-77
2023/04/20 11:26:53;;;;;;;;;10.75;10.75;;;;;14.50;36.81;101087.47;5118270;27;45694;-77
2023/04/20 11:29:31;;;;;;;;;11.75;10.75;;;;;14.45;36.87;101082.34;5118154;27;45414;-78
2023/04/20 11:31:57;;;;;;;;;13.75;13.75;;;;;14.47;37.47;101077.72;5118695;27;45310;-78
2023/04/20 11:34:23;;;;;;;;;13.00;13.00;;;;;14.45;37.57;101085.03;5118321;27;45611;-77
2023/04/20 11:36:53;;;;;;;;;20.75;15.75;;;;;14.42;36.71;101066.31;5118334;27;45930;-78
2023/04/20 11:39:31;;;;;;;;;14.25;13.25;;;;;14.42;37.25;101071.72;5100767;27;45526;-77
2023/04/20 11:41:56;;;;;;;;;9.50;9.25;;;;;14.37;37.29;101060.28;5099464;27;45311;-78
2023/04/20 11:44:23;;;;;;;;;13.75;13.25;;;;;14.42;37.32;101082.50;5099567;27;46984;-77
2023/04/20 11:46:49;;;;;;;;;12.00;12.00;;;;;14.44;37.39;101077.91;5118111;27;46136;-77
2023/04/20 11:49:18;;;;;;;;;17.00;16.50;;;;;14.38;37.25;101060.22;5118306;27;45377;-77
2023/04/20 11:51:44;;;;;;;;;19.00;13.00;;;;;14.47;37.16;101075.00;5117942;27;45379;-78
2023/04/20 11:54:10;;;;;;;;;8.50;7.75;;;;;14.65;37.11;101068.56;5118259;27;45538;-77
2023/04/20 11:56:36;;;;;;;;;14.50;12.50;;;;;14.82;36.72;101056.78;5099175;27;46166;-77
2023/04/20 11:59:02;;;;;;;;;13.75;13.75;;;;;15.09;36.33;101057.88;5099567;27;45972;-78
2023/04/20 12:01:28;;;;;;;;;16.00;16.00;;;;;15.38;36.08;101052.56;5118337;27;45444;-78
2023/04/20 12:03:54;;;;;;;;;10.75;10.75;;;;;15.62;36.13;101063.72;5118157;27;45743;-77
2023/04/20 12:06:20;;;;;;;;;13.25;13.25;;;;;15.61;35.84;101053.88;5099081;27;46985;-77
2023/04/20 12:08:47;;;;;;;;;15.25;14.50;;;;;15.61;35.34;101054.75;5118020;27;45297;-76
2023/04/20 12:11:12;;;;;;;;;16.25;14.00;;;;;15.56;35.54;101056.00;5117325;27;45347;-76
2023/04/20 12:13:38;;;;;;;;;12.75;12.75;;;;;15.65;35.99;101058.97;5117647;27;45164;-78
2023/04/20 12:16:03;;;;;;;;;13.50;13.50;;;;;15.75;35.39;101048.47;5117363;27;51336;-77
2023/04/20 12:18:28;;;;;;;;;15.50;13.00;;;;;15.81;35.33;101029.19;5117657;27;45311;-76
2023/04/20 12:20:54;;;;;;;;;15.00;15.00;;;;;16.27;34.92;101049.59;5117672;27;45507;-78
2023/04/20 12:23:19;;;;;;;;;16.50;16.50;;;;;16.54;34.44;101035.25;5117077;27;49617;-78
2023/04/20 12:25:45;;;;;;;;;12.75;12.75;;;;;17.00;33.61;101042.06;5098597;27;45547;-76
2023/04/20 12:28:10;;;;;;;;;13.00;13.00;;;;;17.43;33.60;101033.69;5116087;27;45970;-76
2023/04/20 12:30:36;;;;;;;;;14.00;14.00;;;;;17.71;32.60;101022.66;5117375;27;45566;-76
2023/04/20 12:33:02;;;;;;;;;16.50;15.25;;;;;17.78;32.28;101020.38;5117605;27;45542;-77
2023/04/20 12:35:28;;;;;;;;;14.00;14.00;;;;;17.49;32.57;101038.69;5117265;27;46276;-76
2023/04/20 12:37:54;;;;;;;;;15.25;15.00;;;;;17.84;32.69;101038.94;5117218;27;45377;-76
2023/04/20 12:40:20;;;;;;;;;15.00;14.50;;;;;18.27;31.99;101027.69;5117179;27;45258;-76
2023/04/20 12:42:45;;;;;;;;;17.00;17.00;;;;;18.75;31.67;101034.06;5098735;27;45541;-76
2023/04/20 12:45:11;;;;;;;;;13.50;13.50;;;;;19.01;31.05;101018.50;5116833;27;45986;-77
2023/04/20 12:47:36;;;;;;;;;16.00;14.75;;;;;18.89;31.16;101006.69;5117154;27;45330;-78
2023/04/20 12:50:02;;;;;;;;;17.00;14.25;;;;;19.13;31.00;101014.84;5117179;27;45985;-77
2023/04/20 12:52:28;;;;;;;;;16.25;15.75;;;;;19.37;31.21;101015.66;5097955;27;45437;-77
2023/04/20 12:54:53;;;;;;;;;15.00;15.00;;;;;19.68;30.11;101010.53;5116666;27;46223;-76
2023/04/20 12:57:19;;;;;;;;;19.00;16.00;;;;;19.56;30.26;101023.28;5116694;27;45322;-77
2023/04/20 12:59:47;;;;;;;;;18.75;17.75;;;;;19.33;30.84;101018.72;5116722;27;45260;-76
2023/04/20 13:02:12;;;;;;;;;15.25;15.25;;;;;19.25;30.83;101022.91;5116741;27;45354;-74
2023/04/20 13:04:38;;;;;;;;;11.50;11.50;;;;;19.34;30.27;101024.03;5097212;27;47206;-78
2023/04/20 13:07:03;;;;;;;;;15.00;15.00;;;;;19.43;30.59;101017.88;5098185;27;45349;-76
2023/04/20 13:09:28;;;;;;;;;19.75;18.25;;;;;20.01;29.86;101002.38;5116666;27;45422;-75
2023/04/20 13:11:54;;;;;;;;;16.00;15.00;;;;;20.47;29.09;101001.38;5094048;27;47023;-77
2023/04/20 13:14:19;;;;;;;;;16.50;16.50;;;;;21.15;28.57;100995.53;5111855;27;47273;-76
2023/04/20 13:16:45;;;;;;;;;14.75;14.50;;;;;21.88;27.15;101019.13;5098110;27;45416;-76
2023/04/20 13:19:10;;;;;;;;;12.25;12.25;;;;;22.46;26.66;100995.66;5116640;27;45468;-78
2023/04/20 13:21:35;;;;;;;;;18.00;16.50;;;;;22.77;26.46;101004.66;5116494;27;45537;-76
2023/04/20 13:24:01;;;;;;;;;13.00;13.00;;;;;22.32;27.01;101008.84;5116230;27;47210;-77
2023/04/20 13:26:26;;;;;;;;;18.25;16.75;;;;;22.31;26.94;101005.25;5116472;27;45250;-77
2023/04/20 13:28:52;;;;;;;;;14.75;14.75;;;;;22.62;26.19;100989.66;5116500;27;45444;-78
2023/04/20 13:31:18;;;;;;;;;17.75;16.00;;;;;23.34;25.39;100987.34;5097769;27;45531;-77
2023/04/20 13:33:43;;;;;;;;;17.25;15.50;;;;;24.06;25.10;101005.91;5116447;27;48086;-76
2023/04/20 13:36:08;;;;;;;;;15.00;15.00;;;;;24.36;24.36;100991.06;5116419;27;45262;-79
2023/04/20 13:38:34;;;;;;;;;17.75;17.75;;;;;24.17;24.77;101001.22;5115738;27;45439;-78
2023/04/20 13:40:59;;;;;;;;;15.50;15.50;;;;;24.52;24.06;100991.25;5097816;27;45389;-77
2023/04/20 13:43:24;;;;;;;;;17.50;17.25;;;;;24.34;24.61;100987.63;5115809;27;45913;-77
2023/04/20 13:45:50;;;;;;;;;11.75;10.00;;;;;23.95;25.22;100989.66;5116254;27;45309;-79
2023/04/20 13:48:15;;;;;;;;;16.75;16.75;;;;;23.68;25.00;100998.69;5115977;27;45939;-78
2023/04/20 13:50:40;;;;;;;;;15.50;15.25;;;;;23.58;25.36;100975.94;5116307;27;45183;-76
2023/04/20 13:53:07;;;;;;;;;15.75;15.75;;;;;23.48;25.36;100974.25;5115559;27;45921;-77
2023/04/20 13:55:32;;;;;;;;;15.00;13.75;;;;;23.15;25.34;100986.50;5116277;27;45439;-77
2023/04/20 13:57:58;;;;;;;;;18.50;18.25;;;;;22.54;26.03;100992.25;5116085;27;45359;-77
2023/04/20 14:00:24;;;;;;;;;15.50;15.50;;;;;21.85;26.70;100981.22;5116488;27;45563;-78
2023/04/20 14:02:50;;;;;;;;;20.25;17.00;;;;;21.16;27.36;100967.28;5116228;27;45490;-78
2023/04/20 14:05:15;;;;;;;;;13.25;12.75;;;;;20.72;27.85;100988.28;5116402;27;45360;-77
2023/04/20 14:07:40;;;;;;;;;15.25;14.75;;;;;20.29;28.81;100985.53;5116334;27;45383;-77
2023/04/20 14:10:06;;;;;;;;;14.00;14.00;;;;;19.85;29.26;100988.28;5115674;27;45430;-77
2023/04/20 14:12:32;;;;;;;;;15.75;14.50;;;;;19.52;30.13;100992.72;5115647;27;46171;-76
2023/04/20 14:14:58;;;;;;;;;16.75;16.75;;;;;18.98;30.52;100981.56;5115864;27;45175;-76
2023/04/20 14:17:25;;;;;;;;;19.00;19.00;;;;;18.66;31.67;100986.72;5097239;27;45372;-77
2023/04/20 14:19:51;;;;;;;;;18.75;14.75;;;;;18.39;31.63;100992.34;5115989;27;45280;-78
2023/04/20 14:22:16;;;;;;;;;16.50;16.00;;;;;18.17;31.97;100983.22;5115645;27;46193;-76
2023/04/20 14:24:44;;;;;;;;;16.50;16.50;;;;;17.96;32.15;100980.19;5115550;27;45486;-78
2023/04/20 14:27:10;;;;;;;;;18.00;17.00;;;;;17.88;32.91;100986.19;5097004;27;45338;-78
2023/04/20 14:29:35;;;;;;;;;17.00;14.00;;;;;17.66;32.68;100957.06;5096943;27;46500;-78
2023/04/20 14:32:01;;;;;;;;;16.50;16.50;;;;;17.75;32.84;100966.38;5115208;27;46354;-77
2023/04/20 14:34:26;;;;;;;;;17.25;17.25;;;;;17.78;32.96;100974.25;5116135;27;45317;-78
2023/04/20 14:36:53;;;;;;;;;13.25;13.25;;;;;17.86;32.52;100976.44;5115620;27;45309;-77
2023/04/20 14:39:22;;;;;;;;;17.50;15.50;;;;;17.83;32.69;100976.66;5115577;27;51463;-76
2023/04/20 14:41:47;;;;;;;;;17.25;16.00;;;;;17.88;32.22;100972.63;5097157;27;48376;-77
2023/04/20 14:44:13;;;;;;;;;15.25;15.25;;;;;18.28;32.51;100972.44;5116125;27;45318;-76
2023/04/20 14:46:39;;;;;;;;;18.25;16.75;;;;;18.67;31.75;100955.00;5116083;27;45406;-77
2023/04/20 14:49:05;;;;;;;;;13.50;13.00;;;;;18.86;31.23;100952.63;5116310;27;45506;-76
2023/04/20 14:51:31;;;;;;;;;16.75;15.75;;;;;19.21;30.82;100960.75;5117623;27;45542;-77
2023/04/20 14:53:56;;;;;;;;;17.75;16.75;;;;;19.28;30.77;100943.84;5119380;27;45261;-76
2023/04/20 14:56:22;;;;;;;;;16.25;14.25;;;;;19.61;30.08;100940.31;5119198;27;45311;-79
2023/04/20 14:58:47;;;;;;;;;12.25;12.25;;;;;20.20;29.82;100944.59;5119531;27;45590;-76
2023/04/20 15:01:13;;;;;;;;;16.00;14.75;;;;;20.61;28.60;100943.88;5119094;27;45481;-78
2023/04/20 15:03:39;;;;;;;;;14.00;11.00;;;;;20.86;28.05;100934.47;5119001;27;45450;-76
2023/04/20 15:06:04;;;;;;;;;13.00;13.00;;;;;21.03;27.83;100936.59;5118803;27;45550;-78
2023/04/20 15:08:30;;;;;;;;;12.50;11.25;;;;;21.10;28.47;100943.25;5118659;27;45837;-79
2023/04/20 15:10:55;;;;;;;;;15.50;13.25;;;;;21.12;27.84;100923.03;5118273;27;46378;-78
2023/04/20 15:13:24;;;;;;;;;15.00;13.50;;;;;21.15;28.24;100930.09;5099998;27;45362;-76
2023/04/20 15:15:51;;;;;;;;;14.50;14.50;;;;;20.98;27.53;100941.59;5118685;27;45390;-77
2023/04/20 15:18:17;;;;;;;;;19.50;13.75;;;;;20.70;29.07;100935.78;5118640;27;45219;-78
2023/04/20 15:20:44;;;;;;;;;15.00;15.00;;;;;20.47;28.36;100925.13;5118344;27;46127;-78
2023/04/20 15:23:09;;;;;;;;;16.25;16.25;;;;;20.23;29.17;100925.28;5118616;27;45243;-77
2023/04/20 15:25:35;;;;;;;;;18.25;18.25;;;;;19.95;29.58;100924.84;5118246;27;45336;-77
2023/04/20 15:28:00;;;;;;;;;17.00;16.00;;;;;19.63;30.12;100929.31;5118517;27;45581;-78
2023/04/20 15:30:28;;;;;;;;;14.00;11.25;;;;;19.22;30.35;100922.56;5118544;27;45480;-76
2023/04/20 15:32:53;;;;;;;;;16.25;15.00;;;;;18.78;31.17;100925.19;5118215;27;45400;-79
2023/04/20 15:35:18;;;;;;;;;17.25;15.75;;;;;18.38;31.50;100936.31;5100076;27;45448;-79
2023/04/20 15:37:44;;;;;;;;;16.00;16.00;;;;;18.00;31.92;100930.19;5118382;27;45257;-76
2023/04/20 15:40:10;;;;;;;;;18.00;16.75;;;;;17.47;32.88;100898.81;5118024;27;46148;-78
2023/04/20 15:42:35;;;;;;;;;14.25;14.25;;;;;17.16;33.22;100892.88;5118331;27;45292;-76